createdAt,value
2023-01-09T00:01:02.736Z,1.40
2023-01-09T00:03:29.930Z,1.17
2023-01-09T00:05:57.532Z,1.30
2023-01-09T00:08:24.758Z,1.00
2023-01-09T00:10:52.530Z,0.97
2023-01-09T00:13:20.604Z,1.03
2023-01-09T00:15:49.186Z,1.20
2023-01-09T00:18:16.350Z,1.40
2023-01-09T00:20:43.572Z,1.70
2023-01-09T00:23:10.852Z,1.47
2023-01-09T00:25:38.052Z,2.07
2023-01-09T00:28:05.544Z,2.10
2023-01-09T00:30:32.806Z,1.00
2023-01-09T00:33:00.039Z,1.37
2023-01-09T00:35:28.762Z,0.87
2023-01-09T00:37:56.034Z,1.23
2023-01-09T00:40:23.240Z,1.00
2023-01-09T00:42:53.869Z,1.17
2023-01-09T00:45:29.273Z,0.83
2023-01-09T00:48:02.994Z,1.80
2023-01-09T00:50:32.278Z,1.20
2023-01-09T00:53:03.582Z,1.20
2023-01-09T00:55:31.051Z,1.03
2023-01-09T00:57:58.720Z,1.10
2023-01-09T01:00:27.029Z,1.10
2023-01-09T01:02:54.534Z,1.10
2023-01-09T01:05:40.766Z,1.00
2023-01-09T01:08:15.867Z,1.30
2023-01-09T01:10:43.470Z,1.00
2023-01-09T01:13:11.392Z,1.53
2023-01-09T01:15:43.119Z,1.10
2023-01-09T01:18:11.839Z,1.50
2023-01-09T01:20:43.877Z,1.10
2023-01-09T01:23:11.569Z,1.50
2023-01-09T01:25:42.836Z,1.27
2023-01-09T01:28:10.744Z,1.50
2023-01-09T01:30:39.881Z,1.00
2023-01-09T01:33:07.208Z,1.40
2023-01-09T01:35:34.566Z,1.30
2023-01-09T01:38:02.203Z,1.30
2023-01-09T01:40:30.236Z,1.03
2023-01-09T01:42:58.871Z,1.10
2023-01-09T01:45:30.238Z,0.83
2023-01-09T01:48:11.738Z,1.07
2023-01-09T01:50:43.845Z,1.20
2023-01-09T01:53:20.098Z,1.47
2023-01-09T01:56:04.701Z,1.43
2023-01-09T01:58:33.384Z,1.30
2023-01-09T02:01:00.858Z,1.10
2023-01-09T02:03:29.333Z,1.10
2023-01-09T02:05:56.576Z,1.20
2023-01-09T02:08:24.161Z,1.00
2023-01-09T02:10:52.239Z,1.07
2023-01-09T02:13:20.895Z,1.00
2023-01-09T02:16:06.333Z,1.10
2023-01-09T02:18:58.919Z,1.30
2023-01-09T02:21:29.200Z,1.20
2023-01-09T02:24:12.561Z,1.00
2023-01-09T02:27:02.839Z,1.10
2023-01-09T02:29:51.763Z,2.73
2023-01-09T02:32:56.063Z,1.00
2023-01-09T02:35:51.256Z,1.10
2023-01-09T02:38:48.201Z,1.13
2023-01-09T02:41:22.739Z,1.43
2023-01-09T02:44:13.555Z,1.20
2023-01-09T02:46:40.773Z,1.20
2023-01-09T02:49:08.538Z,2.10
2023-01-09T02:52:08.833Z,1.17
2023-01-09T02:55:04.196Z,1.37
2023-01-09T02:57:52.793Z,0.90
2023-01-09T03:00:23.409Z,1.00
2023-01-09T03:03:04.857Z,1.03
2023-01-09T03:05:42.370Z,1.00
2023-01-09T03:08:16.112Z,1.50
2023-01-09T03:11:08.078Z,1.13
2023-01-09T03:13:56.154Z,1.10
2023-01-09T03:16:33.339Z,0.93
2023-01-09T03:19:01.847Z,1.20
2023-01-09T03:21:29.421Z,1.17
2023-01-09T03:24:00.664Z,0.97
2023-01-09T03:26:29.760Z,1.10
2023-01-09T03:28:57.405Z,1.10
2023-01-09T03:31:25.079Z,1.10
2023-01-09T03:33:52.536Z,0.90
2023-01-09T03:36:22.025Z,1.67
2023-01-09T03:38:51.739Z,1.10
2023-01-09T03:41:20.490Z,11.20
2023-01-09T03:43:48.833Z,1.10
2023-01-09T03:46:17.115Z,1.67
2023-01-09T03:48:44.368Z,1.10
2023-01-09T03:51:11.641Z,2.00
2023-01-09T03:53:39.718Z,1.23
2023-01-09T03:56:07.313Z,1.40
2023-01-09T03:58:34.612Z,1.40
2023-01-09T04:01:05.024Z,1.13
2023-01-09T04:03:32.669Z,1.50
2023-01-09T04:06:01.649Z,1.27
2023-01-09T04:08:29.093Z,1.30
2023-01-09T04:10:56.452Z,1.30
2023-01-09T04:13:24.149Z,1.07
2023-01-09T04:15:51.357Z,1.53
2023-01-09T04:18:18.809Z,1.80
2023-01-09T04:20:48.834Z,1.63
2023-01-09T04:23:16.980Z,1.77
2023-01-09T04:25:44.369Z,1.53
2023-01-09T04:28:11.952Z,1.27
2023-01-09T04:30:39.232Z,1.27
2023-01-09T04:33:06.560Z,1.37
2023-01-09T04:35:33.760Z,1.30
2023-01-09T04:38:01.115Z,1.40
2023-01-09T04:40:28.732Z,1.20
2023-01-09T04:42:56.047Z,1.13
2023-01-09T04:45:23.667Z,1.50
2023-01-09T04:47:50.843Z,1.07
2023-01-09T04:50:18.266Z,1.60
2023-01-09T04:52:45.435Z,1.50
2023-01-09T04:55:12.835Z,1.50
2023-01-09T04:57:40.082Z,1.30
2023-01-09T05:00:10.225Z,1.20
2023-01-09T05:02:38.139Z,1.27
2023-01-09T05:05:07.780Z,1.23
2023-01-09T05:07:36.481Z,1.27
2023-01-09T05:10:05.221Z,1.40
2023-01-09T05:12:32.635Z,1.10
2023-01-09T05:15:00.135Z,1.17
2023-01-09T05:17:27.447Z,1.10
2023-01-09T05:19:54.814Z,0.93
2023-01-09T05:22:22.220Z,1.57
2023-01-09T05:24:49.393Z,1.27
2023-01-09T05:27:16.781Z,1.75
2023-01-09T05:29:43.976Z,1.52
2023-01-09T05:32:11.586Z,1.30
2023-01-09T05:34:38.963Z,1.60
2023-01-09T05:37:06.435Z,1.20
2023-01-09T05:39:33.719Z,1.30
2023-01-09T05:42:01.041Z,1.20
2023-01-09T05:44:28.280Z,1.42
2023-01-09T05:46:55.624Z,1.30
2023-01-09T05:49:26.123Z,1.48
2023-01-09T05:51:53.449Z,1.30
2023-01-09T05:54:20.646Z,1.60
2023-01-09T05:56:47.965Z,1.10
2023-01-09T05:59:15.329Z,1.43
2023-01-09T06:01:42.760Z,1.20
2023-01-09T06:04:10.425Z,1.60
2023-01-09T06:06:37.784Z,1.30
2023-01-09T06:09:04.950Z,1.50
2023-01-09T06:11:34.606Z,1.40
2023-01-09T06:14:02.657Z,1.25
2023-01-09T06:16:29.833Z,1.73
2023-01-09T06:18:57.308Z,1.10
2023-01-09T06:21:24.930Z,2.13
2023-01-09T06:23:52.367Z,1.20
2023-01-09T06:26:19.822Z,2.13
2023-01-09T06:28:47.046Z,1.20
2023-01-09T06:31:14.595Z,1.30
2023-01-09T06:33:42.055Z,1.30
2023-01-09T06:36:09.872Z,1.23
2023-01-09T06:38:37.105Z,1.63
2023-01-09T06:41:04.684Z,1.27
2023-01-09T06:43:31.991Z,1.40
2023-01-09T06:45:59.220Z,2.33
2023-01-09T06:48:26.440Z,1.85
2023-01-09T06:50:54.640Z,1.30
2023-01-09T06:53:22.772Z,2.10
2023-01-09T06:55:50.272Z,1.35
2023-01-09T06:58:17.916Z,2.85
2023-01-09T07:00:45.264Z,1.38
2023-01-09T07:03:20.021Z,1.42
2023-01-09T07:05:47.781Z,1.77
2023-01-09T07:08:15.628Z,1.37
2023-01-09T07:10:43.853Z,1.20
2023-01-09T07:13:12.027Z,1.05
2023-01-09T07:15:39.614Z,1.40
2023-01-09T07:18:07.348Z,1.33
2023-01-09T07:20:34.877Z,1.30
2023-01-09T07:23:02.261Z,1.20
2023-01-09T07:25:29.544Z,1.70
2023-01-09T07:27:56.858Z,1.00
2023-01-09T07:30:24.232Z,2.60
2023-01-09T07:32:51.631Z,1.23
2023-01-09T07:35:19.185Z,1.20
2023-01-09T07:37:47.696Z,1.20
2023-01-09T07:40:15.176Z,1.13
2023-01-09T07:42:42.554Z,0.97
2023-01-09T07:45:10.296Z,1.10
2023-01-09T07:47:37.539Z,1.37
2023-01-09T07:50:05.196Z,1.33
2023-01-09T07:52:32.493Z,2.13
2023-01-09T07:54:59.732Z,1.03
2023-01-09T07:57:27.117Z,1.90
2023-01-09T07:59:54.535Z,1.30
2023-01-09T08:02:22.294Z,1.30
2023-01-09T08:04:49.704Z,1.20
2023-01-09T08:07:17.217Z,1.07
2023-01-09T08:09:44.523Z,1.10
2023-01-09T08:12:11.648Z,1.10
2023-01-09T08:14:39.034Z,1.40
2023-01-09T08:17:06.449Z,1.30
2023-01-09T08:19:33.735Z,1.30
2023-01-09T08:22:00.979Z,1.23
2023-01-09T08:24:28.343Z,2.10
2023-01-09T08:26:55.532Z,1.23
2023-01-09T08:29:25.852Z,2.30
2023-01-09T08:31:53.236Z,1.10
2023-01-09T08:34:20.700Z,1.27
2023-01-09T08:36:47.905Z,1.10
2023-01-09T08:39:15.372Z,1.00
2023-01-09T08:42:01.280Z,1.20
2023-01-09T08:44:46.890Z,1.93
2023-01-09T08:47:16.985Z,1.30
2023-01-09T08:49:44.458Z,1.03
2023-01-09T08:52:12.691Z,1.30
2023-01-09T08:54:40.419Z,1.10
2023-01-09T08:57:08.305Z,1.00
2023-01-09T08:59:36.008Z,1.90
2023-01-09T09:02:03.505Z,1.03
2023-01-09T09:04:30.768Z,2.13
2023-01-09T09:06:58.145Z,1.07
2023-01-09T09:09:26.211Z,1.47
2023-01-09T09:11:53.764Z,0.93
2023-01-09T09:14:39.321Z,1.40
2023-01-09T09:17:06.940Z,1.20
2023-01-09T09:19:34.211Z,1.87
2023-01-09T09:22:01.851Z,1.17
2023-01-09T09:24:29.131Z,1.63
2023-01-09T09:26:56.591Z,1.30
2023-01-09T09:29:24.291Z,1.03
2023-01-09T09:31:51.704Z,1.47
2023-01-09T09:34:19.098Z,0.90
2023-01-09T09:36:46.549Z,1.37
2023-01-09T09:39:13.944Z,1.17
2023-01-09T09:42:15.205Z,1.40
2023-01-09T09:44:54.637Z,1.20
2023-01-09T09:47:48.499Z,1.00
2023-01-09T09:50:29.291Z,1.00
2023-01-09T09:53:14.770Z,1.10
2023-01-09T09:55:42.986Z,1.10
2023-01-09T09:58:35.112Z,1.90
2023-01-09T10:01:02.566Z,1.20
2023-01-09T10:03:36.452Z,1.73
2023-01-09T10:06:12.037Z,1.13
2023-01-09T10:09:18.417Z,1.80
2023-01-09T10:12:00.585Z,1.03
2023-01-09T10:14:28.079Z,2.97
2023-01-09T10:17:14.421Z,1.10
2023-01-09T10:20:19.732Z,1.20
2023-01-09T10:22:56.033Z,1.10
2023-01-09T10:25:43.003Z,1.00
2023-01-09T10:28:40.076Z,0.90
2023-01-09T10:31:29.978Z,1.00
2023-01-09T10:34:26.417Z,1.00
2023-01-09T10:37:10.667Z,1.20
2023-01-09T10:39:49.367Z,1.57
2023-01-09T10:42:30.999Z,1.10
2023-01-09T10:45:07.086Z,1.20
2023-01-09T10:47:38.998Z,1.53
2023-01-09T10:50:19.988Z,1.00
2023-01-09T10:52:49.651Z,1.40
2023-01-09T10:55:36.855Z,1.10
2023-01-09T10:58:16.869Z,1.00
2023-01-09T11:00:44.553Z,1.10
2023-01-09T11:03:21.031Z,1.00
2023-01-09T11:05:53.795Z,0.90
2023-01-09T11:08:40.497Z,1.20
2023-01-09T11:11:08.777Z,1.10
2023-01-09T11:13:38.748Z,1.47
2023-01-09T11:16:11.935Z,1.40
2023-01-09T11:18:41.360Z,1.67
2023-01-09T11:21:33.548Z,1.10
2023-01-09T11:24:25.877Z,1.20
2023-01-09T11:26:55.614Z,0.97
2023-01-09T11:29:27.055Z,1.07
2023-01-09T11:31:56.929Z,1.00
2023-01-09T11:34:29.375Z,1.53
2023-01-09T11:37:14.288Z,1.20
2023-01-09T11:39:47.391Z,1.57
2023-01-09T11:42:47.400Z,1.03
2023-01-09T11:45:23.891Z,1.00
2023-01-09T11:47:51.355Z,1.10
2023-01-09T11:50:27.575Z,1.03
2023-01-09T11:53:16.934Z,1.10
2023-01-09T11:55:45.802Z,1.50
2023-01-09T11:58:21.425Z,1.53
2023-01-09T12:01:25.787Z,1.20
2023-01-09T12:04:01.445Z,1.20
2023-01-09T12:06:46.028Z,1.10
2023-01-09T12:09:51.669Z,1.27
2023-01-09T12:12:49.729Z,0.97
2023-01-09T12:16:03.993Z,1.10
2023-01-09T12:19:00.002Z,1.23
2023-01-09T12:21:50.985Z,0.90
2023-01-09T12:24:42.257Z,1.10
2023-01-09T12:27:38.578Z,1.60
2023-01-09T12:30:35.455Z,1.47
2023-01-09T12:33:20.484Z,1.00
2023-01-09T12:36:06.882Z,1.40
2023-01-09T12:38:56.210Z,3.00
2023-01-09T12:41:35.749Z,1.30
2023-01-09T12:44:36.025Z,1.03
2023-01-09T12:47:10.345Z,1.10
2023-01-09T12:49:41.986Z,2.97
2023-01-09T12:52:26.850Z,1.20
2023-01-09T12:55:13.720Z,1.27
2023-01-09T12:57:51.185Z,1.77
2023-01-09T13:00:28.625Z,1.30
2023-01-09T13:03:12.473Z,1.30
2023-01-09T13:05:44.815Z,2.00
2023-01-09T13:08:26.387Z,1.97
2023-01-09T13:10:59.899Z,1.27
2023-01-09T13:13:35.803Z,1.13
2023-01-09T13:16:07.054Z,1.30
2023-01-09T13:18:35.986Z,1.23
2023-01-09T13:21:03.475Z,1.13
2023-01-09T13:24:11.468Z,1.27
2023-01-09T13:26:48.279Z,1.03
2023-01-09T13:29:22.733Z,1.10
2023-01-09T13:32:15.321Z,1.50
2023-01-09T13:34:46.351Z,1.87
2023-01-09T13:37:31.587Z,1.20
2023-01-09T13:40:04.821Z,1.40
2023-01-09T13:42:46.415Z,1.30
2023-01-09T13:45:23.338Z,2.17
2023-01-09T13:48:19.408Z,1.00
2023-01-09T13:50:47.936Z,1.60
2023-01-09T13:53:18.347Z,1.30
2023-01-09T13:55:58.802Z,2.00
2023-01-09T13:58:55.193Z,1.20
2023-01-09T14:01:26.191Z,1.53
2023-01-09T14:04:14.026Z,1.30
2023-01-09T14:06:45.121Z,2.60
2023-01-09T14:09:24.973Z,1.33
2023-01-09T14:12:04.059Z,1.50
2023-01-09T14:14:33.606Z,1.60
2023-01-09T14:17:03.699Z,1.10
2023-01-09T14:19:35.728Z,1.37
2023-01-09T14:22:03.443Z,1.10
2023-01-09T14:24:41.693Z,1.33
2023-01-09T14:27:47.645Z,1.40
2023-01-09T14:30:26.774Z,1.20
2023-01-09T14:33:20.021Z,1.23
2023-01-09T14:36:02.321Z,2.20
2023-01-09T14:38:34.223Z,1.20
2023-01-09T14:41:49.596Z,1.60
2023-01-09T14:44:41.097Z,1.33
2023-01-09T14:47:24.671Z,1.10
2023-01-09T14:50:06.594Z,1.70
2023-01-09T14:52:41.160Z,1.20
2023-01-09T14:55:38.850Z,1.23
2023-01-09T14:58:28.757Z,1.20
2023-01-09T15:00:59.073Z,1.27
2023-01-09T15:03:38.813Z,1.17
2023-01-09T15:06:07.213Z,1.40
2023-01-09T15:08:34.643Z,1.30
2023-01-09T15:11:02.090Z,1.40
2023-01-09T15:13:38.247Z,1.30
2023-01-09T15:16:07.051Z,1.20
2023-01-09T15:18:41.640Z,1.50
2023-01-09T15:21:18.177Z,1.60
2023-01-09T15:23:45.430Z,1.10
2023-01-09T15:26:27.146Z,1.20
2023-01-09T15:29:02.038Z,1.98
2023-01-09T15:31:29.683Z,1.70
2023-01-09T15:33:57.464Z,1.77
2023-01-09T15:36:26.867Z,1.55
2023-01-09T15:38:55.034Z,1.80
2023-01-09T15:41:49.067Z,1.35
2023-01-09T15:44:26.998Z,1.38
2023-01-09T15:46:59.325Z,2.10
2023-01-09T15:49:26.975Z,1.30
2023-01-09T15:51:54.814Z,2.00
2023-01-09T15:54:30.596Z,1.00
2023-01-09T15:57:35.744Z,1.80
2023-01-09T16:00:33.784Z,1.27
2023-01-09T16:03:09.759Z,1.35
2023-01-09T16:05:50.991Z,1.20
2023-01-09T16:08:41.264Z,1.17
2023-01-09T16:11:11.083Z,1.70
2023-01-09T16:13:46.429Z,1.30
2023-01-09T16:16:14.684Z,1.48
2023-01-09T16:18:52.122Z,1.30
2023-01-09T16:21:35.767Z,1.30
2023-01-09T16:24:22.270Z,1.40
2023-01-09T16:26:53.480Z,1.45
2023-01-09T16:29:38.128Z,1.25
2023-01-09T16:32:07.049Z,1.10
2023-01-09T16:34:35.875Z,1.10
2023-01-09T16:37:05.957Z,1.23
2023-01-09T16:39:33.373Z,1.33
2023-01-09T16:42:19.900Z,1.65
2023-01-09T16:44:47.178Z,1.57
2023-01-09T16:47:14.513Z,1.40
2023-01-09T16:49:42.030Z,1.58
2023-01-09T16:52:27.599Z,1.50
2023-01-09T16:54:55.101Z,2.03
2023-01-09T16:57:22.697Z,1.03
2023-01-09T16:59:50.103Z,1.37
2023-01-09T17:02:21.432Z,1.20
2023-01-09T17:04:48.703Z,2.00
2023-01-09T17:07:17.655Z,1.40
2023-01-09T17:09:46.162Z,1.23
2023-01-09T17:12:20.070Z,1.20
2023-01-09T17:14:48.244Z,3.23
2023-01-09T17:17:20.639Z,1.23
2023-01-09T17:19:48.407Z,1.00
2023-01-09T17:22:16.144Z,1.10
2023-01-09T17:25:02.351Z,1.20
2023-01-09T17:27:53.654Z,1.50
2023-01-09T17:30:21.514Z,1.27
2023-01-09T17:32:49.011Z,1.10
2023-01-09T17:35:16.841Z,1.30
2023-01-09T17:37:44.586Z,1.30
2023-01-09T17:40:20.514Z,1.10
2023-01-09T17:42:47.871Z,1.40
2023-01-09T17:45:15.655Z,1.50
2023-01-09T17:47:43.010Z,1.10
2023-01-09T17:50:20.978Z,1.30
2023-01-09T17:52:49.436Z,1.53
2023-01-09T17:55:16.798Z,1.08
2023-01-09T17:57:44.805Z,1.50
2023-01-09T18:00:25.181Z,1.30
2023-01-09T18:02:53.239Z,3.43
2023-01-09T18:05:21.992Z,1.33
2023-01-09T18:07:49.858Z,1.57
2023-01-09T18:10:27.456Z,1.40
2023-01-09T18:12:56.150Z,1.52
2023-01-09T18:15:25.075Z,1.23
2023-01-09T18:17:52.816Z,1.10
2023-01-09T18:20:20.248Z,1.20
2023-01-09T18:22:48.208Z,1.38
2023-01-09T18:25:15.989Z,1.45
2023-01-09T18:27:43.399Z,1.15
2023-01-09T18:30:11.338Z,1.58
2023-01-09T18:32:39.200Z,1.10
2023-01-09T18:35:06.678Z,1.00
2023-01-09T18:37:36.820Z,1.10
2023-01-09T18:40:04.964Z,1.55
2023-01-09T18:42:35.722Z,1.20
2023-01-09T18:45:12.939Z,2.05
2023-01-09T18:47:47.198Z,1.25
2023-01-09T18:50:20.306Z,1.40
2023-01-09T18:52:53.314Z,1.13
2023-01-09T18:55:25.887Z,1.15
2023-01-09T18:58:01.052Z,1.02
2023-01-09T19:00:30.157Z,1.25
2023-01-09T19:03:00.973Z,1.02
2023-01-09T19:05:30.477Z,1.30
2023-01-09T19:08:03.051Z,1.00
2023-01-09T19:10:30.780Z,1.30
2023-01-09T19:12:58.050Z,1.20
2023-01-09T19:15:25.693Z,1.23
2023-01-09T19:17:53.227Z,1.30
2023-01-09T19:20:20.540Z,1.10
2023-01-09T19:22:48.059Z,1.60
2023-01-09T19:25:16.089Z,1.30
2023-01-09T19:27:43.338Z,1.10
2023-01-09T19:30:12.681Z,1.35
2023-01-09T19:32:40.561Z,1.30
2023-01-09T19:35:08.357Z,1.60
2023-01-09T19:37:35.775Z,1.02
2023-01-09T19:40:03.403Z,1.67
2023-01-09T19:42:30.655Z,1.00
2023-01-09T19:44:58.364Z,1.40
2023-01-09T19:47:25.975Z,1.00
2023-01-09T19:49:53.278Z,1.70
2023-01-09T19:52:20.669Z,1.25
2023-01-09T19:54:48.259Z,1.40
2023-01-09T19:57:15.796Z,1.17
2023-01-09T19:59:43.987Z,7.03
2023-01-09T20:02:15.012Z,7.07
2023-01-09T20:04:42.325Z,5.50
2023-01-09T20:07:09.619Z,4.28
2023-01-09T20:09:37.139Z,3.05
2023-01-09T20:12:05.684Z,2.60
2023-01-09T20:14:33.310Z,1.15
2023-01-09T20:17:04.893Z,2.67
2023-01-09T20:19:33.473Z,1.02
2023-01-09T20:22:01.454Z,2.75
2023-01-09T20:24:28.727Z,1.00
2023-01-09T20:26:56.130Z,1.08
2023-01-09T20:29:24.089Z,2.25
2023-01-09T20:31:51.435Z,4.20
2023-01-09T20:34:18.737Z,5.43
2023-01-09T20:36:46.619Z,5.47
2023-01-09T20:39:14.102Z,7.85
2023-01-09T20:41:41.702Z,5.65
2023-01-09T20:44:12.953Z,4.32
2023-01-09T20:46:42.473Z,5.30
2023-01-09T20:49:12.200Z,3.92
2023-01-09T20:51:51.268Z,3.35
2023-01-09T20:54:21.640Z,5.47
2023-01-09T20:56:49.065Z,5.32
2023-01-09T20:59:18.392Z,5.53
2023-01-09T21:01:45.735Z,5.22
2023-01-09T21:04:13.290Z,7.22
2023-01-09T21:06:40.683Z,5.10
2023-01-09T21:09:07.999Z,5.25
2023-01-09T21:11:35.661Z,2.50
2023-01-09T21:14:03.386Z,1.38
2023-01-09T21:16:31.073Z,1.30
2023-01-09T21:18:58.480Z,1.30
2023-01-09T21:21:28.289Z,1.00
2023-01-09T21:23:58.968Z,1.30
2023-01-09T21:26:29.325Z,1.35
2023-01-09T21:28:58.606Z,2.75
2023-01-09T21:31:34.950Z,1.23
2023-01-09T21:34:07.822Z,1.92
2023-01-09T21:36:36.219Z,2.47
2023-01-09T21:39:07.912Z,1.15
2023-01-09T21:41:55.852Z,2.38
2023-01-09T21:44:41.811Z,2.55
2023-01-09T21:47:09.444Z,5.53
2023-01-09T21:49:41.027Z,2.42
2023-01-09T21:52:08.393Z,4.63
2023-01-09T21:54:35.876Z,2.50
2023-01-09T21:57:04.241Z,1.17
2023-01-09T21:59:32.763Z,1.10
2023-01-09T22:02:00.802Z,1.08
2023-01-09T22:04:29.572Z,1.80
2023-01-09T22:06:57.285Z,1.20
2023-01-09T22:09:24.689Z,1.70
2023-01-09T22:11:52.090Z,3.53
2023-01-09T22:14:19.962Z,5.78
2023-01-09T22:16:48.256Z,5.67
2023-01-09T22:19:19.902Z,5.95
2023-01-09T22:21:47.588Z,5.63
2023-01-09T22:24:17.087Z,7.65
2023-01-09T22:26:45.008Z,6.90
2023-01-09T22:29:12.596Z,5.85
2023-01-09T22:31:40.912Z,3.53
2023-01-09T22:34:10.490Z,4.63
2023-01-09T22:36:39.124Z,5.15
2023-01-09T22:39:06.834Z,2.70
2023-01-09T22:41:34.446Z,1.45
2023-01-09T22:44:01.982Z,1.10
2023-01-09T22:46:29.459Z,1.20
2023-01-09T22:48:56.623Z,1.10
2023-01-09T22:51:24.365Z,2.55
2023-01-09T22:53:51.889Z,5.30
2023-01-09T22:56:21.589Z,6.32
2023-01-09T22:58:53.472Z,5.32
2023-01-09T23:01:21.731Z,6.20
2023-01-09T23:03:49.304Z,5.70
2023-01-09T23:06:21.477Z,6.03
2023-01-09T23:08:53.742Z,5.70
2023-01-09T23:11:46.483Z,5.53
2023-01-09T23:14:14.471Z,6.28
2023-01-09T23:16:42.189Z,6.93
2023-01-09T23:19:10.133Z,4.07
2023-01-09T23:21:37.763Z,3.35
2023-01-09T23:24:07.344Z,2.22
2023-01-09T23:26:36.040Z,1.85
2023-01-09T23:29:07.104Z,1.20
2023-01-09T23:31:35.463Z,1.90
2023-01-09T23:34:04.095Z,1.00
2023-01-09T23:36:31.945Z,1.30
2023-01-09T23:39:00.029Z,1.00
2023-01-09T23:41:47.266Z,1.40
2023-01-09T23:44:14.635Z,7.07
2023-01-09T23:46:41.889Z,5.32
2023-01-09T23:49:09.323Z,4.82
2023-01-09T23:51:36.603Z,2.85
2023-01-09T23:54:04.353Z,1.38
2023-01-09T23:56:34.344Z,1.40
2023-01-09T23:59:02.632Z,1.38
